sensor_id;sensor_type;location;lat;lon;timestamp;temperature;humidity
9915;DHT22;4996;48.746;9.174;2022-10-16T00:01:46;17.10;99.90
9915;DHT22;4996;48.746;9.174;2022-10-16T00:04:12;17.10;99.90
9915;DHT22;4996;48.746;9.174;2022-10-16T00:06:38;17.10;99.90
9915;DHT22;4996;48.746;9.174;2022-10-16T00:09:04;17.10;99.90
9915;DHT22;4996;48.746;9.174;2022-10-16T00:11:33;17.10;99.90
9915;DHT22;4996;48.746;9.174;2022-10-16T00:14:00;17.10;99.90
9915;DHT22;4996;48.746;9.174;2022-10-16T00:16:27;17.10;99.90
9915;DHT22;4996;48.746;9.174;2022-10-16T00:18:53;17.10;99.90
9915;DHT22;4996;48.746;9.174;2022-10-16T00:21:24;17.10;99.90
9915;DHT22;4996;48.746;9.174;2022-10-16T00:23:52;17.00;99.90
9915;DHT22;4996;48.746;9.174;2022-10-16T00:26:18;17.10;99.90
9915;DHT22;4996;48.746;9.174;2022-10-16T00:28:49;17.10;99.90
9915;DHT22;4996;48.746;9.174;2022-10-16T00:31:16;17.10;99.90
9915;DHT22;4996;48.746;9.174;2022-10-16T00:33:42;17.00;99.90
9915;DHT22;4996;48.746;9.174;2022-10-16T00:36:12;16.90;99.90
9915;DHT22;4996;48.746;9.174;2022-10-16T00:38:38;16.90;99.90
9915;DHT22;4996;48.746;9.174;2022-10-16T00:41:04;16.90;99.90
9915;DHT22;4996;48.746;9.174;2022-10-16T00:46:00;16.90;99.90
9915;DHT22;4996;48.746;9.174;2022-10-16T00:48:26;16.80;99.90
9915;DHT22;4996;48.746;9.174;2022-10-16T00:50:52;16.70;99.90
9915;DHT22;4996;48.746;9.174;2022-10-16T00:53:18;16.70;99.90
9915;DHT22;4996;48.746;9.174;2022-10-16T00:55:44;16.70;99.90
9915;DHT22;4996;48.746;9.174;2022-10-16T00:58:11;16.70;99.90
9915;DHT22;4996;48.746;9.174;2022-10-16T01:00:36;16.60;99.90
9915;DHT22;4996;48.746;9.174;2022-10-16T01:03:21;16.60;99.90
9915;DHT22;4996;48.746;9.174;2022-10-16T01:05:58;16.60;99.90
9915;DHT22;4996;48.746;9.174;2022-10-16T01:08:34;16.50;99.90
9915;DHT22;4996;48.746;9.174;2022-10-16T01:11:26;16.50;99.90
9915;DHT22;4996;48.746;9.174;2022-10-16T01:13:55;16.60;99.90
9915;DHT22;4996;48.746;9.174;2022-10-16T01:16:31;16.60;99.90
9915;DHT22;4996;48.746;9.174;2022-10-16T01:19:12;16.60;99.90
9915;DHT22;4996;48.746;9.174;2022-10-16T01:21:43;16.60;99.90
9915;DHT22;4996;48.746;9.174;2022-10-16T01:30:10;16.60;99.90
9915;DHT22;4996;48.746;9.174;2022-10-16T01:32:42;16.60;99.90
9915;DHT22;4996;48.746;9.174;2022-10-16T01:35:27;16.60;99.90
9915;DHT22;4996;48.746;9.174;2022-10-16T01:38:12;16.50;99.90
9915;DHT22;4996;48.746;9.174;2022-10-16T01:40:45;16.60;99.90
9915;DHT22;4996;48.746;9.174;2022-10-16T01:43:17;16.60;99.90
9915;DHT22;4996;48.746;9.174;2022-10-16T01:45:44;16.60;99.90
9915;DHT22;4996;48.746;9.174;2022-10-16T01:48:13;16.50;99.90
9915;DHT22;4996;48.746;9.174;2022-10-16T01:50:42;16.50;99.90
9915;DHT22;4996;48.746;9.174;2022-10-16T01:53:11;16.60;99.90
9915;DHT22;4996;48.746;9.174;2022-10-16T01:55:40;16.60;99.90
9915;DHT22;4996;48.746;9.174;2022-10-16T01:58:11;16.60;99.90
9915;DHT22;4996;48.746;9.174;2022-10-16T02:00:39;16.60;99.90
9915;DHT22;4996;48.746;9.174;2022-10-16T02:03:07;16.60;99.90
9915;DHT22;4996;48.746;9.174;2022-10-16T02:05:42;16.60;99.90
9915;DHT22;4996;48.746;9.174;2022-10-16T02:08:10;16.60;99.90
9915;DHT22;4996;48.746;9.174;2022-10-16T02:10:37;16.60;99.90
9915;DHT22;4996;48.746;9.174;2022-10-16T02:13:18;16.50;99.90
9915;DHT22;4996;48.746;9.174;2022-10-16T02:15:46;16.60;99.90
9915;DHT22;4996;48.746;9.174;2022-10-16T02:18:12;16.60;99.90
9915;DHT22;4996;48.746;9.174;2022-10-16T02:20:51;16.60;99.90
9915;DHT22;4996;48.746;9.174;2022-10-16T02:23:24;16.60;99.90
9915;DHT22;4996;48.746;9.174;2022-10-16T02:25:54;16.60;99.90
9915;DHT22;4996;48.746;9.174;2022-10-16T02:28:28;16.60;99.90
9915;DHT22;4996;48.746;9.174;2022-10-16T02:30:59;16.50;99.90
9915;DHT22;4996;48.746;9.174;2022-10-16T02:33:28;16.50;99.90
9915;DHT22;4996;48.746;9.174;2022-10-16T02:35:55;16.50;99.90
9915;DHT22;4996;48.746;9.174;2022-10-16T02:38:22;16.50;99.90
9915;DHT22;4996;48.746;9.174;2022-10-16T02:40:49;16.50;99.90
9915;DHT22;4996;48.746;9.174;2022-10-16T02:43:14;16.60;99.90
9915;DHT22;4996;48.746;9.174;2022-10-16T02:45:40;16.60;99.90
9915;DHT22;4996;48.746;9.174;2022-10-16T02:48:06;16.60;99.90
9915;DHT22;4996;48.746;9.174;2022-10-16T02:50:31;16.70;99.90
9915;DHT22;4996;48.746;9.174;2022-10-16T02:52:57;16.70;99.90
9915;DHT22;4996;48.746;9.174;2022-10-16T02:55:22;16.70;99.90
9915;DHT22;4996;48.746;9.174;2022-10-16T02:57:48;16.70;99.90
9915;DHT22;4996;48.746;9.174;2022-10-16T03:00:15;16.60;99.90
9915;DHT22;4996;48.746;9.174;2022-10-16T03:02:41;16.60;99.90
9915;DHT22;4996;48.746;9.174;2022-10-16T03:05:07;16.60;99.90
9915;DHT22;4996;48.746;9.174;2022-10-16T03:07:33;16.60;99.90
9915;DHT22;4996;48.746;9.174;2022-10-16T03:09:58;16.60;99.90
9915;DHT22;4996;48.746;9.174;2022-10-16T03:12:26;16.50;99.90
9915;DHT22;4996;48.746;9.174;2022-10-16T03:14:52;16.50;99.90
9915;DHT22;4996;48.746;9.174;2022-10-16T03:17:17;16.60;99.90
9915;DHT22;4996;48.746;9.174;2022-10-16T03:19:43;16.50;99.90
9915;DHT22;4996;48.746;9.174;2022-10-16T03:22:08;16.50;99.90
9915;DHT22;4996;48.746;9.174;2022-10-16T03:24:34;16.50;99.90
9915;DHT22;4996;48.746;9.174;2022-10-16T03:27:00;16.50;99.90
9915;DHT22;4996;48.746;9.174;2022-10-16T03:29:26;16.60;99.90
9915;DHT22;4996;48.746;9.174;2022-10-16T03:31:51;16.60;99.90
9915;DHT22;4996;48.746;9.174;2022-10-16T03:34:17;16.60;99.90
9915;DHT22;4996;48.746;9.174;2022-10-16T03:36:42;16.60;99.90
9915;DHT22;4996;48.746;9.174;2022-10-16T03:39:08;16.60;99.90
9915;DHT22;4996;48.746;9.174;2022-10-16T03:41:33;16.60;99.90
9915;DHT22;4996;48.746;9.174;2022-10-16T03:43:59;16.60;99.90
9915;DHT22;4996;48.746;9.174;2022-10-16T03:46:24;16.60;99.90
9915;DHT22;4996;48.746;9.174;2022-10-16T03:48:50;16.60;99.90
9915;DHT22;4996;48.746;9.174;2022-10-16T03:51:16;16.50;99.90
9915;DHT22;4996;48.746;9.174;2022-10-16T03:53:41;16.50;99.90
9915;DHT22;4996;48.746;9.174;2022-10-16T03:56:07;16.50;99.90
9915;DHT22;4996;48.746;9.174;2022-10-16T03:58:32;16.50;99.90
9915;DHT22;4996;48.746;9.174;2022-10-16T04:00:58;16.50;99.90
9915;DHT22;4996;48.746;9.174;2022-10-16T04:03:24;16.60;99.90
9915;DHT22;4996;48.746;9.174;2022-10-16T04:05:49;16.50;99.90
9915;DHT22;4996;48.746;9.174;2022-10-16T04:08:15;16.50;99.90
9915;DHT22;4996;48.746;9.174;2022-10-16T04:10:42;16.40;99.90
9915;DHT22;4996;48.746;9.174;2022-10-16T04:13:08;16.50;99.90
9915;DHT22;4996;48.746;9.174;2022-10-16T04:15:34;16.40;99.90
9915;DHT22;4996;48.746;9.174;2022-10-16T04:18:00;16.50;99.90
9915;DHT22;4996;48.746;9.174;2022-10-16T04:20:25;16.40;99.90
9915;DHT22;4996;48.746;9.174;2022-10-16T04:22:51;16.50;99.90
9915;DHT22;4996;48.746;9.174;2022-10-16T04:25:17;16.40;99.90
9915;DHT22;4996;48.746;9.174;2022-10-16T04:27:42;16.50;99.90
9915;DHT22;4996;48.746;9.174;2022-10-16T04:30:08;16.40;99.90
9915;DHT22;4996;48.746;9.174;2022-10-16T04:32:33;16.50;99.90
9915;DHT22;4996;48.746;9.174;2022-10-16T04:34:59;16.50;99.90
9915;DHT22;4996;48.746;9.174;2022-10-16T04:37:25;16.40;99.90
9915;DHT22;4996;48.746;9.174;2022-10-16T04:39:52;16.40;99.90
9915;DHT22;4996;48.746;9.174;2022-10-16T04:42:18;16.40;99.90
9915;DHT22;4996;48.746;9.174;2022-10-16T04:44:43;16.50;99.90
9915;DHT22;4996;48.746;9.174;2022-10-16T04:47:09;16.40;99.90
9915;DHT22;4996;48.746;9.174;2022-10-16T04:49:34;16.50;99.90
9915;DHT22;4996;48.746;9.174;2022-10-16T04:52:00;16.50;99.90
9915;DHT22;4996;48.746;9.174;2022-10-16T04:54:26;16.50;99.90
9915;DHT22;4996;48.746;9.174;2022-10-16T04:56:51;16.50;99.90
9915;DHT22;4996;48.746;9.174;2022-10-16T04:59:18;16.60;99.90
9915;DHT22;4996;48.746;9.174;2022-10-16T05:01:44;16.50;99.90
9915;DHT22;4996;48.746;9.174;2022-10-16T05:04:10;16.50;99.90
9915;DHT22;4996;48.746;9.174;2022-10-16T05:06:37;16.50;99.90
9915;DHT22;4996;48.746;9.174;2022-10-16T05:09:04;16.50;99.90
9915;DHT22;4996;48.746;9.174;2022-10-16T05:11:30;16.50;99.90
9915;DHT22;4996;48.746;9.174;2022-10-16T05:13:56;16.50;99.90
9915;DHT22;4996;48.746;9.174;2022-10-16T05:16:21;16.50;99.90
9915;DHT22;4996;48.746;9.174;2022-10-16T05:18:47;16.40;99.90
9915;DHT22;4996;48.746;9.174;2022-10-16T05:21:12;16.40;99.90
9915;DHT22;4996;48.746;9.174;2022-10-16T05:23:38;16.40;99.90
9915;DHT22;4996;48.746;9.174;2022-10-16T05:26:03;16.40;99.90
9915;DHT22;4996;48.746;9.174;2022-10-16T05:28:29;16.50;99.90
9915;DHT22;4996;48.746;9.174;2022-10-16T05:30:56;16.40;99.90
9915;DHT22;4996;48.746;9.174;2022-10-16T05:33:22;16.40;99.90
9915;DHT22;4996;48.746;9.174;2022-10-16T05:35:48;16.50;99.90
9915;DHT22;4996;48.746;9.174;2022-10-16T05:38:15;16.40;99.90
9915;DHT22;4996;48.746;9.174;2022-10-16T05:40:41;16.40;99.90
9915;DHT22;4996;48.746;9.174;2022-10-16T05:43:06;16.40;99.90
9915;DHT22;4996;48.746;9.174;2022-10-16T05:45:32;16.40;99.90
9915;DHT22;4996;48.746;9.174;2022-10-16T05:47:57;16.40;99.90
9915;DHT22;4996;48.746;9.174;2022-10-16T05:50:23;16.30;99.90
9915;DHT22;4996;48.746;9.174;2022-10-16T05:52:48;16.30;99.90
9915;DHT22;4996;48.746;9.174;2022-10-16T05:55:14;16.40;99.90
9915;DHT22;4996;48.746;9.174;2022-10-16T05:57:40;16.40;99.90
9915;DHT22;4996;48.746;9.174;2022-10-16T06:00:06;16.30;99.90
9915;DHT22;4996;48.746;9.174;2022-10-16T06:02:32;16.30;99.90
9915;DHT22;4996;48.746;9.174;2022-10-16T06:04:57;16.30;99.90
9915;DHT22;4996;48.746;9.174;2022-10-16T06:07:23;16.30;99.90
9915;DHT22;4996;48.746;9.174;2022-10-16T06:09:50;16.30;99.90
9915;DHT22;4996;48.746;9.174;2022-10-16T06:12:16;16.30;99.90
9915;DHT22;4996;48.746;9.174;2022-10-16T06:14:42;16.40;99.90
9915;DHT22;4996;48.746;9.174;2022-10-16T06:17:07;16.40;99.90
9915;DHT22;4996;48.746;9.174;2022-10-16T06:19:33;16.40;99.90
9915;DHT22;4996;48.746;9.174;2022-10-16T06:21:58;16.60;99.90
9915;DHT22;4996;48.746;9.174;2022-10-16T06:24:24;16.50;99.90
9915;DHT22;4996;48.746;9.174;2022-10-16T06:26:50;16.50;99.90
9915;DHT22;4996;48.746;9.174;2022-10-16T06:29:16;16.60;99.90
9915;DHT22;4996;48.746;9.174;2022-10-16T06:31:41;16.60;99.90
9915;DHT22;4996;48.746;9.174;2022-10-16T06:34:10;16.70;99.90
9915;DHT22;4996;48.746;9.174;2022-10-16T06:36:37;16.70;99.90
9915;DHT22;4996;48.746;9.174;2022-10-16T06:39:04;16.70;99.90
9915;DHT22;4996;48.746;9.174;2022-10-16T06:41:30;16.80;99.90
9915;DHT22;4996;48.746;9.174;2022-10-16T06:43:56;16.90;99.90
9915;DHT22;4996;48.746;9.174;2022-10-16T06:46:23;17.00;99.90
9915;DHT22;4996;48.746;9.174;2022-10-16T06:48:49;17.00;99.90
9915;DHT22;4996;48.746;9.174;2022-10-16T06:51:17;17.00;99.90
9915;DHT22;4996;48.746;9.174;2022-10-16T06:53:48;17.10;99.90
9915;DHT22;4996;48.746;9.174;2022-10-16T06:58:44;17.30;99.90
9915;DHT22;4996;48.746;9.174;2022-10-16T07:01:11;17.30;99.90
9915;DHT22;4996;48.746;9.174;2022-10-16T07:03:37;17.40;99.90
9915;DHT22;4996;48.746;9.174;2022-10-16T07:06:05;17.30;99.90
9915;DHT22;4996;48.746;9.174;2022-10-16T07:08:32;17.40;99.90
9915;DHT22;4996;48.746;9.174;2022-10-16T07:11:02;17.30;99.90
9915;DHT22;4996;48.746;9.174;2022-10-16T07:13:27;17.40;99.90
9915;DHT22;4996;48.746;9.174;2022-10-16T07:15:53;17.40;99.90
9915;DHT22;4996;48.746;9.174;2022-10-16T07:18:18;17.50;99.90
9915;DHT22;4996;48.746;9.174;2022-10-16T07:20:44;17.60;99.90
9915;DHT22;4996;48.746;9.174;2022-10-16T07:23:10;17.60;99.90
9915;DHT22;4996;48.746;9.174;2022-10-16T07:25:35;17.60;99.90
9915;DHT22;4996;48.746;9.174;2022-10-16T07:28:01;17.70;99.90
9915;DHT22;4996;48.746;9.174;2022-10-16T07:30:26;17.60;99.90
9915;DHT22;4996;48.746;9.174;2022-10-16T07:32:51;17.60;99.90
9915;DHT22;4996;48.746;9.174;2022-10-16T07:35:17;17.60;99.90
9915;DHT22;4996;48.746;9.174;2022-10-16T07:37:46;17.60;99.90
9915;DHT22;4996;48.746;9.174;2022-10-16T07:40:12;17.70;99.90
9915;DHT22;4996;48.746;9.174;2022-10-16T07:42:37;17.60;99.90
9915;DHT22;4996;48.746;9.174;2022-10-16T07:45:03;17.60;99.90
9915;DHT22;4996;48.746;9.174;2022-10-16T07:47:29;17.70;99.90
9915;DHT22;4996;48.746;9.174;2022-10-16T07:49:54;17.70;99.90
9915;DHT22;4996;48.746;9.174;2022-10-16T07:52:20;17.80;99.90
9915;DHT22;4996;48.746;9.174;2022-10-16T07:54:45;17.80;99.90
9915;DHT22;4996;48.746;9.174;2022-10-16T07:57:11;17.90;99.90
9915;DHT22;4996;48.746;9.174;2022-10-16T07:59:37;17.90;99.90
9915;DHT22;4996;48.746;9.174;2022-10-16T08:02:02;17.90;99.90
9915;DHT22;4996;48.746;9.174;2022-10-16T08:04:28;17.90;99.90
9915;DHT22;4996;48.746;9.174;2022-10-16T08:06:53;17.90;99.90
9915;DHT22;4996;48.746;9.174;2022-10-16T08:09:19;18.00;99.90
9915;DHT22;4996;48.746;9.174;2022-10-16T08:11:45;18.00;99.90
9915;DHT22;4996;48.746;9.174;2022-10-16T08:14:10;18.10;99.90
9915;DHT22;4996;48.746;9.174;2022-10-16T08:16:36;18.20;99.90
9915;DHT22;4996;48.746;9.174;2022-10-16T08:19:02;18.30;99.90
9915;DHT22;4996;48.746;9.174;2022-10-16T08:21:27;18.30;99.90
9915;DHT22;4996;48.746;9.174;2022-10-16T08:23:53;18.30;99.90
9915;DHT22;4996;48.746;9.174;2022-10-16T08:26:20;18.40;99.90
9915;DHT22;4996;48.746;9.174;2022-10-16T08:28:49;18.60;99.90
9915;DHT22;4996;48.746;9.174;2022-10-16T08:31:16;18.60;99.90
9915;DHT22;4996;48.746;9.174;2022-10-16T08:33:43;18.70;99.90
9915;DHT22;4996;48.746;9.174;2022-10-16T08:36:11;18.70;99.90
9915;DHT22;4996;48.746;9.174;2022-10-16T08:38:37;18.90;99.90
9915;DHT22;4996;48.746;9.174;2022-10-16T08:46:51;19.30;99.90
9915;DHT22;4996;48.746;9.174;2022-10-16T08:49:20;19.40;99.90
9915;DHT22;4996;48.746;9.174;2022-10-16T08:51:46;19.40;99.90
9915;DHT22;4996;48.746;9.174;2022-10-16T08:54:34;19.50;99.90
9915;DHT22;4996;48.746;9.174;2022-10-16T08:57:19;19.50;99.90
9915;DHT22;4996;48.746;9.174;2022-10-16T08:59:45;19.50;99.90
9915;DHT22;4996;48.746;9.174;2022-10-16T09:02:31;19.50;99.90
9915;DHT22;4996;48.746;9.174;2022-10-16T09:08:19;19.60;99.90
9915;DHT22;4996;48.746;9.174;2022-10-16T09:13:55;19.90;99.90
9915;DHT22;4996;48.746;9.174;2022-10-16T09:16:48;20.00;99.90
9915;DHT22;4996;48.746;9.174;2022-10-16T09:19:27;20.10;99.90
9915;DHT22;4996;48.746;9.174;2022-10-16T09:21:53;20.00;99.90
9915;DHT22;4996;48.746;9.174;2022-10-16T09:24:22;20.20;99.90
9915;DHT22;4996;48.746;9.174;2022-10-16T09:26:49;20.20;99.90
9915;DHT22;4996;48.746;9.174;2022-10-16T09:29:17;20.40;99.90
9915;DHT22;4996;48.746;9.174;2022-10-16T09:31:45;20.60;99.90
9915;DHT22;4996;48.746;9.174;2022-10-16T09:34:34;20.70;99.90
9915;DHT22;4996;48.746;9.174;2022-10-16T09:37:04;20.50;99.90
9915;DHT22;4996;48.746;9.174;2022-10-16T09:39:30;20.70;99.90
9915;DHT22;4996;48.746;9.174;2022-10-16T09:42:11;21.20;99.90
9915;DHT22;4996;48.746;9.174;2022-10-16T09:44:39;21.30;99.90
9915;DHT22;4996;48.746;9.174;2022-10-16T09:47:15;21.30;99.90
9915;DHT22;4996;48.746;9.174;2022-10-16T09:50:01;21.30;99.90
9915;DHT22;4996;48.746;9.174;2022-10-16T09:52:30;21.60;99.90
9915;DHT22;4996;48.746;9.174;2022-10-16T09:55:01;22.10;99.90
9915;DHT22;4996;48.746;9.174;2022-10-16T09:57:27;22.50;99.90
9915;DHT22;4996;48.746;9.174;2022-10-16T09:59:54;22.50;99.90
9915;DHT22;4996;48.746;9.174;2022-10-16T10:02:29;22.60;99.90
9915;DHT22;4996;48.746;9.174;2022-10-16T10:04:56;22.50;99.90
9915;DHT22;4996;48.746;9.174;2022-10-16T10:07:27;22.50;99.90
9915;DHT22;4996;48.746;9.174;2022-10-16T10:09:54;22.70;99.90
9915;DHT22;4996;48.746;9.174;2022-10-16T10:12:23;22.50;99.90
9915;DHT22;4996;48.746;9.174;2022-10-16T10:14:51;22.50;99.90
9915;DHT22;4996;48.746;9.174;2022-10-16T10:17:23;22.50;99.90
9915;DHT22;4996;48.746;9.174;2022-10-16T10:22:26;22.60;99.90
9915;DHT22;4996;48.746;9.174;2022-10-16T10:31:06;22.90;99.90
9915;DHT22;4996;48.746;9.174;2022-10-16T10:34:01;23.30;99.90
9915;DHT22;4996;48.746;9.174;2022-10-16T10:36:38;23.30;99.90
9915;DHT22;4996;48.746;9.174;2022-10-16T10:42:48;23.60;99.90
9915;DHT22;4996;48.746;9.174;2022-10-16T10:45:27;23.50;99.90
9915;DHT22;4996;48.746;9.174;2022-10-16T10:50:56;23.50;99.90
9915;DHT22;4996;48.746;9.174;2022-10-16T11:12:21;28.90;99.90
9915;DHT22;4996;48.746;9.174;2022-10-16T11:17:42;31.60;97.20
9915;DHT22;4996;48.746;9.174;2022-10-16T11:20:26;31.00;95.60
9915;DHT22;4996;48.746;9.174;2022-10-16T11:23:05;30.20;95.40
9915;DHT22;4996;48.746;9.174;2022-10-16T11:25:33;29.60;95.90
9915;DHT22;4996;48.746;9.174;2022-10-16T11:28:15;28.90;96.30
9915;DHT22;4996;48.746;9.174;2022-10-16T11:30:55;28.40;96.70
9915;DHT22;4996;48.746;9.174;2022-10-16T11:33:36;28.50;97.60
9915;DHT22;4996;48.746;9.174;2022-10-16T11:36:33;28.20;96.90
9915;DHT22;4996;48.746;9.174;2022-10-16T11:39:08;27.70;97.90
9915;DHT22;4996;48.746;9.174;2022-10-16T11:41:52;28.40;98.20
9915;DHT22;4996;48.746;9.174;2022-10-16T11:49:46;30.70;94.80
9915;DHT22;4996;48.746;9.174;2022-10-16T11:52:33;31.20;93.90
9915;DHT22;4996;48.746;9.174;2022-10-16T11:58:06;32.20;92.00
9915;DHT22;4996;48.746;9.174;2022-10-16T12:00:40;33.40;90.30
9915;DHT22;4996;48.746;9.174;2022-10-16T12:03:14;33.90;87.80
9915;DHT22;4996;48.746;9.174;2022-10-16T12:08:34;33.70;83.70
9915;DHT22;4996;48.746;9.174;2022-10-16T12:11:30;33.50;84.30
9915;DHT22;4996;48.746;9.174;2022-10-16T12:19:19;30.30;87.30
9915;DHT22;4996;48.746;9.174;2022-10-16T12:21:45;29.80;88.60
9915;DHT22;4996;48.746;9.174;2022-10-16T12:24:22;29.60;90.40
9915;DHT22;4996;48.746;9.174;2022-10-16T12:26:52;29.50;90.60
9915;DHT22;4996;48.746;9.174;2022-10-16T12:31:55;29.30;91.50
9915;DHT22;4996;48.746;9.174;2022-10-16T12:34:28;29.30;91.30
9915;DHT22;4996;48.746;9.174;2022-10-16T12:36:55;29.20;91.00
9915;DHT22;4996;48.746;9.174;2022-10-16T12:39:24;28.60;91.40
9915;DHT22;4996;48.746;9.174;2022-10-16T12:42:04;28.20;92.00
9915;DHT22;4996;48.746;9.174;2022-10-16T12:44:35;27.80;92.30
9915;DHT22;4996;48.746;9.174;2022-10-16T12:47:01;27.50;92.60
9915;DHT22;4996;48.746;9.174;2022-10-16T12:49:35;27.60;93.20
9915;DHT22;4996;48.746;9.174;2022-10-16T12:52:02;27.20;93.60
9915;DHT22;4996;48.746;9.174;2022-10-16T12:54:36;27.10;93.70
9915;DHT22;4996;48.746;9.174;2022-10-16T12:59:52;26.40;94.80
9915;DHT22;4996;48.746;9.174;2022-10-16T13:05:26;25.80;96.20
9915;DHT22;4996;48.746;9.174;2022-10-16T13:10:26;25.50;97.80
9915;DHT22;4996;48.746;9.174;2022-10-16T13:23:22;25.20;99.40
9915;DHT22;4996;48.746;9.174;2022-10-16T13:28:38;25.10;99.80
9915;DHT22;4996;48.746;9.174;2022-10-16T13:31:04;25.20;99.50
9915;DHT22;4996;48.746;9.174;2022-10-16T13:36:02;25.30;99.80
9915;DHT22;4996;48.746;9.174;2022-10-16T13:38:33;25.20;99.90
9915;DHT22;4996;48.746;9.174;2022-10-16T13:43:43;25.10;99.90
9915;DHT22;4996;48.746;9.174;2022-10-16T13:46:20;25.10;99.90
9915;DHT22;4996;48.746;9.174;2022-10-16T13:49:01;25.00;99.90
9915;DHT22;4996;48.746;9.174;2022-10-16T13:51:27;25.00;99.90
9915;DHT22;4996;48.746;9.174;2022-10-16T13:53:55;25.10;99.90
9915;DHT22;4996;48.746;9.174;2022-10-16T13:56:25;25.00;99.90
9915;DHT22;4996;48.746;9.174;2022-10-16T13:59:01;25.00;99.90
9915;DHT22;4996;48.746;9.174;2022-10-16T14:01:30;25.00;99.90
9915;DHT22;4996;48.746;9.174;2022-10-16T14:04:02;25.00;99.90
9915;DHT22;4996;48.746;9.174;2022-10-16T14:06:29;25.10;99.90
9915;DHT22;4996;48.746;9.174;2022-10-16T14:11:48;25.00;99.90
9915;DHT22;4996;48.746;9.174;2022-10-16T14:14:18;24.90;99.90
9915;DHT22;4996;48.746;9.174;2022-10-16T14:16:44;24.90;99.90
9915;DHT22;4996;48.746;9.174;2022-10-16T14:19:22;24.80;99.90
9915;DHT22;4996;48.746;9.174;2022-10-16T14:21:49;24.80;99.90
9915;DHT22;4996;48.746;9.174;2022-10-16T14:24:32;24.80;99.90
9915;DHT22;4996;48.746;9.174;2022-10-16T14:26:59;24.80;99.90
9915;DHT22;4996;48.746;9.174;2022-10-16T14:29:27;24.80;99.90
9915;DHT22;4996;48.746;9.174;2022-10-16T14:31:56;24.70;99.90
9915;DHT22;4996;48.746;9.174;2022-10-16T14:34:36;24.70;99.90
9915;DHT22;4996;48.746;9.174;2022-10-16T14:37:16;24.70;99.90
9915;DHT22;4996;48.746;9.174;2022-10-16T14:39:51;24.60;99.90
9915;DHT22;4996;48.746;9.174;2022-10-16T14:42:19;24.60;99.90
9915;DHT22;4996;48.746;9.174;2022-10-16T14:44:46;24.60;99.90
9915;DHT22;4996;48.746;9.174;2022-10-16T14:47:17;24.60;99.90
9915;DHT22;4996;48.746;9.174;2022-10-16T14:49:49;24.60;99.90
9915;DHT22;4996;48.746;9.174;2022-10-16T14:52:15;24.60;99.90
9915;DHT22;4996;48.746;9.174;2022-10-16T14:54:40;24.50;99.90
9915;DHT22;4996;48.746;9.174;2022-10-16T14:57:19;24.50;99.90
9915;DHT22;4996;48.746;9.174;2022-10-16T14:59:46;24.60;99.90
9915;DHT22;4996;48.746;9.174;2022-10-16T15:02:31;24.50;99.90
9915;DHT22;4996;48.746;9.174;2022-10-16T15:05:10;24.30;99.90
9915;DHT22;4996;48.746;9.174;2022-10-16T15:07:37;24.10;99.90
9915;DHT22;4996;48.746;9.174;2022-10-16T15:10:02;24.00;99.90
9915;DHT22;4996;48.746;9.174;2022-10-16T15:12:28;23.90;99.90
9915;DHT22;4996;48.746;9.174;2022-10-16T15:14:54;23.80;99.90
9915;DHT22;4996;48.746;9.174;2022-10-16T15:17:19;23.90;99.90
9915;DHT22;4996;48.746;9.174;2022-10-16T15:19:45;23.80;99.90
9915;DHT22;4996;48.746;9.174;2022-10-16T15:22:13;23.90;99.90
9915;DHT22;4996;48.746;9.174;2022-10-16T15:24:39;23.80;99.90
9915;DHT22;4996;48.746;9.174;2022-10-16T15:27:04;23.70;99.90
9915;DHT22;4996;48.746;9.174;2022-10-16T15:29:30;23.70;99.90
9915;DHT22;4996;48.746;9.174;2022-10-16T15:31:56;23.70;99.90
9915;DHT22;4996;48.746;9.174;2022-10-16T15:34:21;23.60;99.90
9915;DHT22;4996;48.746;9.174;2022-10-16T15:36:47;23.50;99.90
9915;DHT22;4996;48.746;9.174;2022-10-16T15:39:17;23.50;99.90
9915;DHT22;4996;48.746;9.174;2022-10-16T15:41:45;23.40;99.90
9915;DHT22;4996;48.746;9.174;2022-10-16T15:44:16;23.40;99.90
9915;DHT22;4996;48.746;9.174;2022-10-16T15:46:41;23.30;99.90
9915;DHT22;4996;48.746;9.174;2022-10-16T15:49:08;23.20;99.90
9915;DHT22;4996;48.746;9.174;2022-10-16T15:51:37;23.20;99.90
9915;DHT22;4996;48.746;9.174;2022-10-16T15:54:03;23.10;99.90
9915;DHT22;4996;48.746;9.174;2022-10-16T15:56:29;23.10;99.90
9915;DHT22;4996;48.746;9.174;2022-10-16T15:58:58;23.00;99.90
9915;DHT22;4996;48.746;9.174;2022-10-16T16:01:24;22.90;99.90
9915;DHT22;4996;48.746;9.174;2022-10-16T16:03:53;22.90;99.90
9915;DHT22;4996;48.746;9.174;2022-10-16T16:06:19;22.90;99.90
9915;DHT22;4996;48.746;9.174;2022-10-16T16:08:44;22.70;99.90
9915;DHT22;4996;48.746;9.174;2022-10-16T16:11:12;22.70;99.90
9915;DHT22;4996;48.746;9.174;2022-10-16T16:13:39;22.60;99.90
9915;DHT22;4996;48.746;9.174;2022-10-16T16:16:10;22.40;99.90
9915;DHT22;4996;48.746;9.174;2022-10-16T16:18:36;22.40;99.90
9915;DHT22;4996;48.746;9.174;2022-10-16T16:21:03;22.30;99.90
9915;DHT22;4996;48.746;9.174;2022-10-16T16:23:29;22.20;99.90
9915;DHT22;4996;48.746;9.174;2022-10-16T16:28:31;21.90;99.90
9915;DHT22;4996;48.746;9.174;2022-10-16T16:30:57;21.80;99.90
9915;DHT22;4996;48.746;9.174;2022-10-16T16:33:22;21.60;99.90
9915;DHT22;4996;48.746;9.174;2022-10-16T16:35:49;21.60;99.90
9915;DHT22;4996;48.746;9.174;2022-10-16T16:38:15;21.40;99.90
9915;DHT22;4996;48.746;9.174;2022-10-16T16:40:40;21.30;99.90
9915;DHT22;4996;48.746;9.174;2022-10-16T16:43:06;21.30;99.90
9915;DHT22;4996;48.746;9.174;2022-10-16T16:45:35;21.30;99.90
9915;DHT22;4996;48.746;9.174;2022-10-16T16:48:00;21.20;99.90
9915;DHT22;4996;48.746;9.174;2022-10-16T16:50:26;21.00;99.90
9915;DHT22;4996;48.746;9.174;2022-10-16T16:52:51;20.90;99.90
9915;DHT22;4996;48.746;9.174;2022-10-16T16:55:17;20.90;99.90
9915;DHT22;4996;48.746;9.174;2022-10-16T16:57:42;20.80;99.90
9915;DHT22;4996;48.746;9.174;2022-10-16T17:00:08;20.80;99.90
9915;DHT22;4996;48.746;9.174;2022-10-16T17:02:34;20.70;99.90
9915;DHT22;4996;48.746;9.174;2022-10-16T17:05:00;20.70;99.90
9915;DHT22;4996;48.746;9.174;2022-10-16T17:07:25;20.60;99.90
9915;DHT22;4996;48.746;9.174;2022-10-16T17:09:52;20.60;99.90
9915;DHT22;4996;48.746;9.174;2022-10-16T17:12:17;20.50;99.90
9915;DHT22;4996;48.746;9.174;2022-10-16T17:14:43;20.50;99.90
9915;DHT22;4996;48.746;9.174;2022-10-16T17:17:08;20.40;99.90
9915;DHT22;4996;48.746;9.174;2022-10-16T17:19:34;20.40;99.90
9915;DHT22;4996;48.746;9.174;2022-10-16T17:22:00;20.40;99.90
9915;DHT22;4996;48.746;9.174;2022-10-16T17:24:25;20.40;99.90
9915;DHT22;4996;48.746;9.174;2022-10-16T17:26:51;20.50;99.90
9915;DHT22;4996;48.746;9.174;2022-10-16T17:29:17;20.50;99.90
9915;DHT22;4996;48.746;9.174;2022-10-16T17:31:44;20.50;99.90
9915;DHT22;4996;48.746;9.174;2022-10-16T17:34:10;20.50;99.90
9915;DHT22;4996;48.746;9.174;2022-10-16T17:36:38;20.50;99.90
9915;DHT22;4996;48.746;9.174;2022-10-16T17:39:10;20.50;99.90
9915;DHT22;4996;48.746;9.174;2022-10-16T17:41:36;20.40;99.90
9915;DHT22;4996;48.746;9.174;2022-10-16T17:44:03;20.30;99.90
9915;DHT22;4996;48.746;9.174;2022-10-16T17:46:29;20.20;99.90
9915;DHT22;4996;48.746;9.174;2022-10-16T17:48:54;20.10;99.90
9915;DHT22;4996;48.746;9.174;2022-10-16T17:51:25;20.10;99.90
9915;DHT22;4996;48.746;9.174;2022-10-16T17:53:53;20.10;99.90
9915;DHT22;4996;48.746;9.174;2022-10-16T17:56:20;20.00;99.90
9915;DHT22;4996;48.746;9.174;2022-10-16T17:58:49;20.00;99.90
9915;DHT22;4996;48.746;9.174;2022-10-16T18:01:24;19.90;99.90
9915;DHT22;4996;48.746;9.174;2022-10-16T18:03:53;19.80;99.90